sensor_id;sensor_type;location;lat;lon;timestamp;P1;durP1;ratioP1;P2;durP2;ratioP2
20986;SDS011;10652;50.306;8.570;2022-12-20T00:02:38;21.42;;;12.73;;
20986;SDS011;10652;50.306;8.570;2022-12-20T00:06:40;16.40;;;11.40;;
20986;SDS011;10652;50.306;8.570;2022-12-20T00:10:43;15.05;;;11.45;;
20986;SDS011;10652;50.306;8.570;2022-12-20T00:14:46;18.60;;;12.27;;
20986;SDS011;10652;50.306;8.570;2022-12-20T00:18:52;19.30;;;12.38;;
20986;SDS011;10652;50.306;8.570;2022-12-20T00:22:56;20.98;;;13.00;;
20986;SDS011;10652;50.306;8.570;2022-12-20T00:26:58;23.90;;;14.35;;
20986;SDS011;10652;50.306;8.570;2022-12-20T00:31:00;22.05;;;14.13;;
20986;SDS011;10652;50.306;8.570;2022-12-20T00:35:03;20.10;;;13.95;;
20986;SDS011;10652;50.306;8.570;2022-12-20T00:39:05;20.98;;;14.10;;
20986;SDS011;10652;50.306;8.570;2022-12-20T00:43:08;23.05;;;15.20;;
20986;SDS011;10652;50.306;8.570;2022-12-20T00:47:12;21.95;;;14.85;;
20986;SDS011;10652;50.306;8.570;2022-12-20T00:51:16;21.30;;;15.00;;
20986;SDS011;10652;50.306;8.570;2022-12-20T00:55:22;21.30;;;13.95;;
20986;SDS011;10652;50.306;8.570;2022-12-20T00:59:24;20.30;;;14.15;;
20986;SDS011;10652;50.306;8.570;2022-12-20T01:03:26;20.48;;;14.05;;
20986;SDS011;10652;50.306;8.570;2022-12-20T01:07:29;22.90;;;14.18;;
20986;SDS011;10652;50.306;8.570;2022-12-20T01:11:32;20.42;;;12.80;;
20986;SDS011;10652;50.306;8.570;2022-12-20T01:15:36;20.25;;;13.77;;
20986;SDS011;10652;50.306;8.570;2022-12-20T01:19:39;21.77;;;14.40;;
20986;SDS011;10652;50.306;8.570;2022-12-20T01:23:41;24.10;;;15.70;;
20986;SDS011;10652;50.306;8.570;2022-12-20T01:27:44;23.52;;;15.50;;
20986;SDS011;10652;50.306;8.570;2022-12-20T01:31:47;21.65;;;15.77;;
20986;SDS011;10652;50.306;8.570;2022-12-20T01:39:57;23.60;;;16.35;;
20986;SDS011;10652;50.306;8.570;2022-12-20T01:44:00;21.95;;;15.45;;
20986;SDS011;10652;50.306;8.570;2022-12-20T01:48:04;23.67;;;15.63;;
20986;SDS011;10652;50.306;8.570;2022-12-20T01:52:10;22.67;;;15.70;;
20986;SDS011;10652;50.306;8.570;2022-12-20T01:56:16;22.88;;;14.90;;
20986;SDS011;10652;50.306;8.570;2022-12-20T02:00:18;20.17;;;14.43;;
20986;SDS011;10652;50.306;8.570;2022-12-20T02:04:21;21.65;;;14.68;;
20986;SDS011;10652;50.306;8.570;2022-12-20T02:08:23;18.48;;;13.80;;
20986;SDS011;10652;50.306;8.570;2022-12-20T02:12:26;21.90;;;13.63;;
20986;SDS011;10652;50.306;8.570;2022-12-20T02:16:38;18.92;;;13.65;;
20986;SDS011;10652;50.306;8.570;2022-12-20T02:33:52;19.13;;;12.65;;
20986;SDS011;10652;50.306;8.570;2022-12-20T02:37:59;18.03;;;12.60;;
20986;SDS011;10652;50.306;8.570;2022-12-20T02:42:05;19.92;;;12.50;;
20986;SDS011;10652;50.306;8.570;2022-12-20T02:46:09;18.10;;;11.45;;
20986;SDS011;10652;50.306;8.570;2022-12-20T02:50:15;15.88;;;11.93;;
20986;SDS011;10652;50.306;8.570;2022-12-20T02:54:22;14.98;;;11.05;;
20986;SDS011;10652;50.306;8.570;2022-12-20T02:58:27;15.52;;;11.07;;
20986;SDS011;10652;50.306;8.570;2022-12-20T03:02:35;15.35;;;11.55;;
20986;SDS011;10652;50.306;8.570;2022-12-20T03:06:58;16.23;;;11.60;;
20986;SDS011;10652;50.306;8.570;2022-12-20T03:11:09;19.48;;;12.13;;
20986;SDS011;10652;50.306;8.570;2022-12-20T03:15:11;17.92;;;12.18;;
20986;SDS011;10652;50.306;8.570;2022-12-20T03:19:13;17.55;;;12.02;;
20986;SDS011;10652;50.306;8.570;2022-12-20T03:23:16;19.27;;;12.30;;
20986;SDS011;10652;50.306;8.570;2022-12-20T03:27:18;16.98;;;12.57;;
20986;SDS011;10652;50.306;8.570;2022-12-20T03:31:20;15.90;;;12.55;;
20986;SDS011;10652;50.306;8.570;2022-12-20T03:35:27;16.05;;;11.88;;
20986;SDS011;10652;50.306;8.570;2022-12-20T03:39:29;17.75;;;12.23;;
20986;SDS011;10652;50.306;8.570;2022-12-20T03:43:32;18.13;;;12.55;;
20986;SDS011;10652;50.306;8.570;2022-12-20T03:47:34;16.92;;;11.77;;
20986;SDS011;10652;50.306;8.570;2022-12-20T03:51:37;16.52;;;11.98;;
20986;SDS011;10652;50.306;8.570;2022-12-20T03:55:39;14.77;;;11.30;;
20986;SDS011;10652;50.306;8.570;2022-12-20T03:59:46;14.68;;;11.05;;
20986;SDS011;10652;50.306;8.570;2022-12-20T04:03:49;15.40;;;10.82;;
20986;SDS011;10652;50.306;8.570;2022-12-20T04:07:52;17.80;;;11.18;;
20986;SDS011;10652;50.306;8.570;2022-12-20T04:11:54;16.70;;;11.15;;
20986;SDS011;10652;50.306;8.570;2022-12-20T04:15:57;15.07;;;11.23;;
20986;SDS011;10652;50.306;8.570;2022-12-20T04:20:05;15.65;;;11.65;;
20986;SDS011;10652;50.306;8.570;2022-12-20T04:24:32;16.15;;;12.20;;
20986;SDS011;10652;50.306;8.570;2022-12-20T04:28:52;15.15;;;10.32;;
20986;SDS011;10652;50.306;8.570;2022-12-20T04:32:55;14.88;;;10.77;;
20986;SDS011;10652;50.306;8.570;2022-12-20T04:36:59;14.20;;;10.35;;
20986;SDS011;10652;50.306;8.570;2022-12-20T04:41:14;13.20;;;10.13;;
20986;SDS011;10652;50.306;8.570;2022-12-20T04:45:28;15.07;;;10.40;;
20986;SDS011;10652;50.306;8.570;2022-12-20T04:49:31;15.23;;;10.18;;
20986;SDS011;10652;50.306;8.570;2022-12-20T04:53:33;11.38;;;9.55;;
20986;SDS011;10652;50.306;8.570;2022-12-20T04:58:08;12.68;;;9.85;;
20986;SDS011;10652;50.306;8.570;2022-12-20T05:02:13;14.05;;;9.73;;
20986;SDS011;10652;50.306;8.570;2022-12-20T05:06:29;15.73;;;9.93;;
20986;SDS011;10652;50.306;8.570;2022-12-20T05:10:32;13.98;;;9.68;;
20986;SDS011;10652;50.306;8.570;2022-12-20T05:14:36;12.73;;;9.63;;
20986;SDS011;10652;50.306;8.570;2022-12-20T05:18:38;15.60;;;9.93;;
20986;SDS011;10652;50.306;8.570;2022-12-20T05:22:49;13.07;;;9.55;;
20986;SDS011;10652;50.306;8.570;2022-12-20T05:27:10;13.50;;;9.82;;
20986;SDS011;10652;50.306;8.570;2022-12-20T05:31:13;12.80;;;9.18;;
20986;SDS011;10652;50.306;8.570;2022-12-20T05:35:15;12.32;;;8.95;;
20986;SDS011;10652;50.306;8.570;2022-12-20T05:39:20;11.48;;;9.10;;
20986;SDS011;10652;50.306;8.570;2022-12-20T05:43:25;14.98;;;9.90;;
20986;SDS011;10652;50.306;8.570;2022-12-20T05:47:27;14.15;;;9.88;;
20986;SDS011;10652;50.306;8.570;2022-12-20T05:51:37;14.93;;;10.07;;
20986;SDS011;10652;50.306;8.570;2022-12-20T05:56:08;12.88;;;9.45;;
20986;SDS011;10652;50.306;8.570;2022-12-20T06:00:13;12.95;;;9.55;;
20986;SDS011;10652;50.306;8.570;2022-12-20T06:04:17;12.93;;;9.23;;
20986;SDS011;10652;50.306;8.570;2022-12-20T06:08:21;14.15;;;10.15;;
20986;SDS011;10652;50.306;8.570;2022-12-20T06:12:26;17.25;;;9.95;;
20986;SDS011;10652;50.306;8.570;2022-12-20T06:16:28;13.65;;;10.25;;
20986;SDS011;10652;50.306;8.570;2022-12-20T06:20:32;15.50;;;10.30;;
20986;SDS011;10652;50.306;8.570;2022-12-20T06:24:36;14.65;;;10.55;;
20986;SDS011;10652;50.306;8.570;2022-12-20T06:28:48;12.82;;;9.63;;
20986;SDS011;10652;50.306;8.570;2022-12-20T06:32:58;13.90;;;9.82;;
20986;SDS011;10652;50.306;8.570;2022-12-20T06:37:01;14.23;;;9.95;;
20986;SDS011;10652;50.306;8.570;2022-12-20T06:41:06;14.15;;;10.35;;
20986;SDS011;10652;50.306;8.570;2022-12-20T06:45:09;14.02;;;9.57;;
20986;SDS011;10652;50.306;8.570;2022-12-20T06:49:11;12.68;;;9.55;;
20986;SDS011;10652;50.306;8.570;2022-12-20T06:53:13;12.13;;;8.98;;
20986;SDS011;10652;50.306;8.570;2022-12-20T06:57:16;13.95;;;9.38;;
20986;SDS011;10652;50.306;8.570;2022-12-20T07:01:21;11.85;;;9.40;;
20986;SDS011;10652;50.306;8.570;2022-12-20T07:05:23;11.38;;;8.32;;
20986;SDS011;10652;50.306;8.570;2022-12-20T07:09:25;12.65;;;9.13;;
20986;SDS011;10652;50.306;8.570;2022-12-20T07:13:27;13.10;;;9.00;;
20986;SDS011;10652;50.306;8.570;2022-12-20T07:17:29;12.77;;;9.00;;
20986;SDS011;10652;50.306;8.570;2022-12-20T07:21:33;15.68;;;8.88;;
20986;SDS011;10652;50.306;8.570;2022-12-20T07:25:35;11.43;;;7.82;;
20986;SDS011;10652;50.306;8.570;2022-12-20T07:29:37;10.35;;;8.43;;
20986;SDS011;10652;50.306;8.570;2022-12-20T07:33:42;13.30;;;9.18;;
20986;SDS011;10652;50.306;8.570;2022-12-20T07:37:44;14.02;;;8.35;;
20986;SDS011;10652;50.306;8.570;2022-12-20T07:41:47;9.60;;;7.93;;
20986;SDS011;10652;50.306;8.570;2022-12-20T07:45:55;10.80;;;8.20;;
20986;SDS011;10652;50.306;8.570;2022-12-20T07:49:57;11.57;;;8.70;;
20986;SDS011;10652;50.306;8.570;2022-12-20T07:54:09;12.52;;;8.65;;
20986;SDS011;10652;50.306;8.570;2022-12-20T07:58:14;11.15;;;8.73;;
20986;SDS011;10652;50.306;8.570;2022-12-20T08:02:22;12.23;;;8.77;;
20986;SDS011;10652;50.306;8.570;2022-12-20T08:06:32;13.02;;;9.32;;
20986;SDS011;10652;50.306;8.570;2022-12-20T08:10:37;13.23;;;8.68;;
20986;SDS011;10652;50.306;8.570;2022-12-20T08:14:39;11.88;;;8.85;;
20986;SDS011;10652;50.306;8.570;2022-12-20T08:18:42;15.68;;;9.60;;
20986;SDS011;10652;50.306;8.570;2022-12-20T08:22:44;15.80;;;9.77;;
20986;SDS011;10652;50.306;8.570;2022-12-20T08:26:46;13.98;;;9.13;;
20986;SDS011;10652;50.306;8.570;2022-12-20T08:30:48;13.52;;;9.70;;
20986;SDS011;10652;50.306;8.570;2022-12-20T08:34:51;11.70;;;9.73;;
20986;SDS011;10652;50.306;8.570;2022-12-20T08:38:53;11.82;;;8.75;;
20986;SDS011;10652;50.306;8.570;2022-12-20T08:42:57;12.63;;;8.75;;
20986;SDS011;10652;50.306;8.570;2022-12-20T08:46:59;12.25;;;8.40;;
20986;SDS011;10652;50.306;8.570;2022-12-20T08:51:03;10.00;;;7.95;;
20986;SDS011;10652;50.306;8.570;2022-12-20T08:55:07;12.88;;;9.00;;
20986;SDS011;10652;50.306;8.570;2022-12-20T08:59:09;11.00;;;8.65;;
20986;SDS011;10652;50.306;8.570;2022-12-20T09:03:11;9.98;;;7.70;;
20986;SDS011;10652;50.306;8.570;2022-12-20T09:07:15;11.27;;;8.25;;
20986;SDS011;10652;50.306;8.570;2022-12-20T09:11:18;13.63;;;8.20;;
20986;SDS011;10652;50.306;8.570;2022-12-20T09:15:22;9.55;;;7.32;;
20986;SDS011;10652;50.306;8.570;2022-12-20T09:19:24;10.77;;;7.13;;
20986;SDS011;10652;50.306;8.570;2022-12-20T09:23:26;12.43;;;8.20;;
20986;SDS011;10652;50.306;8.570;2022-12-20T09:27:29;11.63;;;7.97;;
20986;SDS011;10652;50.306;8.570;2022-12-20T09:31:31;9.43;;;6.65;;
20986;SDS011;10652;50.306;8.570;2022-12-20T09:35:34;13.48;;;9.25;;
20986;SDS011;10652;50.306;8.570;2022-12-20T09:39:36;11.43;;;8.20;;
20986;SDS011;10652;50.306;8.570;2022-12-20T09:43:38;10.20;;;8.23;;
20986;SDS011;10652;50.306;8.570;2022-12-20T09:47:42;10.23;;;7.97;;
20986;SDS011;10652;50.306;8.570;2022-12-20T09:56:00;12.48;;;8.48;;
20986;SDS011;10652;50.306;8.570;2022-12-20T10:00:15;15.13;;;9.25;;
20986;SDS011;10652;50.306;8.570;2022-12-20T10:04:22;10.50;;;7.10;;
20986;SDS011;10652;50.306;8.570;2022-12-20T10:12:59;12.98;;;9.30;;
20986;SDS011;10652;50.306;8.570;2022-12-20T10:17:15;15.57;;;10.05;;
20986;SDS011;10652;50.306;8.570;2022-12-20T10:21:43;13.07;;;9.75;;
20986;SDS011;10652;50.306;8.570;2022-12-20T10:25:52;12.90;;;9.40;;
20986;SDS011;10652;50.306;8.570;2022-12-20T10:29:57;13.80;;;8.85;;
20986;SDS011;10652;50.306;8.570;2022-12-20T10:33:59;10.80;;;8.43;;
20986;SDS011;10652;50.306;8.570;2022-12-20T10:42:21;14.07;;;9.77;;
20986;SDS011;10652;50.306;8.570;2022-12-20T10:50:38;13.80;;;9.40;;
20986;SDS011;10652;50.306;8.570;2022-12-20T10:54:41;13.43;;;9.75;;
20986;SDS011;10652;50.306;8.570;2022-12-20T11:03:20;10.18;;;8.00;;
20986;SDS011;10652;50.306;8.570;2022-12-20T11:07:25;9.23;;;6.72;;
20986;SDS011;10652;50.306;8.570;2022-12-20T11:11:30;10.63;;;7.65;;
20986;SDS011;10652;50.306;8.570;2022-12-20T11:15:35;12.90;;;7.93;;
20986;SDS011;10652;50.306;8.570;2022-12-20T11:28:48;9.45;;;7.32;;
20986;SDS011;10652;50.306;8.570;2022-12-20T11:33:01;10.23;;;7.28;;
20986;SDS011;10652;50.306;8.570;2022-12-20T11:37:17;12.25;;;8.43;;
20986;SDS011;10652;50.306;8.570;2022-12-20T11:41:29;10.20;;;7.88;;
20986;SDS011;10652;50.306;8.570;2022-12-20T11:45:57;8.90;;;6.97;;
20986;SDS011;10652;50.306;8.570;2022-12-20T11:50:18;8.05;;;5.70;;
20986;SDS011;10652;50.306;8.570;2022-12-20T11:54:40;8.00;;;5.60;;
20986;SDS011;10652;50.306;8.570;2022-12-20T12:03:36;9.45;;;6.80;;
20986;SDS011;10652;50.306;8.570;2022-12-20T12:07:40;12.23;;;7.28;;
20986;SDS011;10652;50.306;8.570;2022-12-20T12:11:49;10.25;;;7.03;;
20986;SDS011;10652;50.306;8.570;2022-12-20T12:16:09;9.93;;;6.95;;
20986;SDS011;10652;50.306;8.570;2022-12-20T12:24:47;10.40;;;7.50;;
20986;SDS011;10652;50.306;8.570;2022-12-20T12:28:58;10.23;;;7.38;;
20986;SDS011;10652;50.306;8.570;2022-12-20T12:33:02;10.82;;;7.72;;
20986;SDS011;10652;50.306;8.570;2022-12-20T12:50:27;11.30;;;8.63;;
20986;SDS011;10652;50.306;8.570;2022-12-20T12:54:35;12.85;;;7.60;;
20986;SDS011;10652;50.306;8.570;2022-12-20T12:58:40;9.85;;;7.93;;
20986;SDS011;10652;50.306;8.570;2022-12-20T13:02:50;10.68;;;7.55;;
20986;SDS011;10652;50.306;8.570;2022-12-20T13:06:53;11.73;;;8.10;;
20986;SDS011;10652;50.306;8.570;2022-12-20T13:19:35;10.10;;;7.20;;
20986;SDS011;10652;50.306;8.570;2022-12-20T13:23:39;10.77;;;7.85;;
20986;SDS011;10652;50.306;8.570;2022-12-20T13:27:41;9.25;;;7.28;;
20986;SDS011;10652;50.306;8.570;2022-12-20T13:31:43;10.18;;;7.40;;
20986;SDS011;10652;50.306;8.570;2022-12-20T13:35:56;11.07;;;7.70;;
20986;SDS011;10652;50.306;8.570;2022-12-20T13:40:14;10.73;;;8.50;;
20986;SDS011;10652;50.306;8.570;2022-12-20T13:44:35;11.10;;;8.43;;
20986;SDS011;10652;50.306;8.570;2022-12-20T13:52:48;10.35;;;7.70;;
20986;SDS011;10652;50.306;8.570;2022-12-20T13:56:51;10.63;;;8.00;;
20986;SDS011;10652;50.306;8.570;2022-12-20T14:00:54;11.32;;;8.23;;
20986;SDS011;10652;50.306;8.570;2022-12-20T14:05:12;11.05;;;8.80;;
20986;SDS011;10652;50.306;8.570;2022-12-20T14:09:36;12.23;;;8.00;;
20986;SDS011;10652;50.306;8.570;2022-12-20T14:13:39;9.57;;;7.80;;
20986;SDS011;10652;50.306;8.570;2022-12-20T14:17:42;10.45;;;7.55;;
20986;SDS011;10652;50.306;8.570;2022-12-20T14:21:45;11.05;;;7.40;;
20986;SDS011;10652;50.306;8.570;2022-12-20T14:25:53;10.25;;;7.25;;
20986;SDS011;10652;50.306;8.570;2022-12-20T14:29:57;9.93;;;7.55;;
20986;SDS011;10652;50.306;8.570;2022-12-20T14:34:01;12.05;;;8.13;;
20986;SDS011;10652;50.306;8.570;2022-12-20T14:38:18;11.80;;;8.52;;
20986;SDS011;10652;50.306;8.570;2022-12-20T14:42:23;10.35;;;8.00;;
20986;SDS011;10652;50.306;8.570;2022-12-20T14:50:33;12.43;;;9.18;;
20986;SDS011;10652;50.306;8.570;2022-12-20T14:54:44;12.10;;;8.57;;
20986;SDS011;10652;50.306;8.570;2022-12-20T14:59:14;16.90;;;13.98;;
20986;SDS011;10652;50.306;8.570;2022-12-20T15:03:18;10.07;;;7.20;;
20986;SDS011;10652;50.306;8.570;2022-12-20T15:07:29;9.52;;;7.47;;
20986;SDS011;10652;50.306;8.570;2022-12-20T15:11:33;8.63;;;6.03;;
20986;SDS011;10652;50.306;8.570;2022-12-20T15:15:37;10.25;;;7.25;;
20986;SDS011;10652;50.306;8.570;2022-12-20T15:19:39;9.82;;;7.13;;
20986;SDS011;10652;50.306;8.570;2022-12-20T15:23:47;9.48;;;6.80;;
20986;SDS011;10652;50.306;8.570;2022-12-20T15:27:54;9.32;;;6.55;;
20986;SDS011;10652;50.306;8.570;2022-12-20T15:32:03;8.57;;;6.75;;
20986;SDS011;10652;50.306;8.570;2022-12-20T15:36:12;9.40;;;7.18;;
20986;SDS011;10652;50.306;8.570;2022-12-20T15:40:18;9.15;;;6.47;;
20986;SDS011;10652;50.306;8.570;2022-12-20T15:44:24;11.93;;;7.90;;
20986;SDS011;10652;50.306;8.570;2022-12-20T15:48:28;7.32;;;5.95;;
20986;SDS011;10652;50.306;8.570;2022-12-20T15:52:30;9.82;;;7.80;;
20986;SDS011;10652;50.306;8.570;2022-12-20T15:56:33;10.88;;;7.95;;
20986;SDS011;10652;50.306;8.570;2022-12-20T16:00:37;11.68;;;8.10;;
20986;SDS011;10652;50.306;8.570;2022-12-20T16:04:41;9.23;;;6.83;;
20986;SDS011;10652;50.306;8.570;2022-12-20T16:08:44;9.38;;;6.38;;
20986;SDS011;10652;50.306;8.570;2022-12-20T16:12:46;8.18;;;6.20;;
20986;SDS011;10652;50.306;8.570;2022-12-20T16:16:48;8.50;;;6.25;;
20986;SDS011;10652;50.306;8.570;2022-12-20T16:20:51;8.88;;;6.15;;
20986;SDS011;10652;50.306;8.570;2022-12-20T16:24:53;7.95;;;5.47;;
20986;SDS011;10652;50.306;8.570;2022-12-20T16:28:55;9.55;;;6.30;;
20986;SDS011;10652;50.306;8.570;2022-12-20T16:32:57;9.48;;;6.70;;
20986;SDS011;10652;50.306;8.570;2022-12-20T16:37:00;8.98;;;6.82;;
20986;SDS011;10652;50.306;8.570;2022-12-20T16:41:15;7.50;;;6.00;;
20986;SDS011;10652;50.306;8.570;2022-12-20T16:45:20;11.50;;;6.50;;
20986;SDS011;10652;50.306;8.570;2022-12-20T16:49:24;9.35;;;6.40;;
20986;SDS011;10652;50.306;8.570;2022-12-20T16:53:26;11.32;;;7.03;;
20986;SDS011;10652;50.306;8.570;2022-12-20T16:57:43;10.30;;;7.33;;
20986;SDS011;10652;50.306;8.570;2022-12-20T17:01:45;7.35;;;6.18;;
20986;SDS011;10652;50.306;8.570;2022-12-20T17:05:48;10.50;;;6.63;;
20986;SDS011;10652;50.306;8.570;2022-12-20T17:09:50;10.32;;;7.10;;
20986;SDS011;10652;50.306;8.570;2022-12-20T17:13:54;7.75;;;6.22;;
20986;SDS011;10652;50.306;8.570;2022-12-20T17:17:56;10.07;;;7.30;;
20986;SDS011;10652;50.306;8.570;2022-12-20T17:21:59;8.80;;;6.47;;
20986;SDS011;10652;50.306;8.570;2022-12-20T17:26:23;8.20;;;5.72;;
20986;SDS011;10652;50.306;8.570;2022-12-20T17:30:27;7.50;;;6.00;;
20986;SDS011;10652;50.306;8.570;2022-12-20T17:34:29;10.18;;;6.40;;
20986;SDS011;10652;50.306;8.570;2022-12-20T17:38:31;8.82;;;6.90;;
20986;SDS011;10652;50.306;8.570;2022-12-20T17:42:33;8.82;;;6.30;;
20986;SDS011;10652;50.306;8.570;2022-12-20T17:46:35;9.18;;;6.18;;
20986;SDS011;10652;50.306;8.570;2022-12-20T17:50:38;9.05;;;6.70;;
20986;SDS011;10652;50.306;8.570;2022-12-20T17:54:40;9.50;;;6.90;;
20986;SDS011;10652;50.306;8.570;2022-12-20T17:58:42;9.48;;;6.93;;
20986;SDS011;10652;50.306;8.570;2022-12-20T18:02:45;9.10;;;6.70;;
20986;SDS011;10652;50.306;8.570;2022-12-20T18:06:47;9.55;;;6.90;;
20986;SDS011;10652;50.306;8.570;2022-12-20T18:10:49;9.63;;;6.78;;
20986;SDS011;10652;50.306;8.570;2022-12-20T18:14:51;7.82;;;6.63;;
20986;SDS011;10652;50.306;8.570;2022-12-20T18:18:54;8.93;;;7.40;;
20986;SDS011;10652;50.306;8.570;2022-12-20T18:22:56;10.27;;;7.03;;
20986;SDS011;10652;50.306;8.570;2022-12-20T18:26:58;8.45;;;6.43;;
20986;SDS011;10652;50.306;8.570;2022-12-20T18:31:02;9.07;;;6.78;;
20986;SDS011;10652;50.306;8.570;2022-12-20T18:35:05;9.35;;;6.68;;
20986;SDS011;10652;50.306;8.570;2022-12-20T18:39:09;9.15;;;5.82;;
20986;SDS011;10652;50.306;8.570;2022-12-20T18:43:13;9.65;;;5.97;;
20986;SDS011;10652;50.306;8.570;2022-12-20T18:47:15;7.90;;;5.75;;
20986;SDS011;10652;50.306;8.570;2022-12-20T18:51:23;7.70;;;5.88;;
20986;SDS011;10652;50.306;8.570;2022-12-20T18:55:27;14.88;;;9.98;;
20986;SDS011;10652;50.306;8.570;2022-12-20T18:59:29;6.93;;;5.70;;
20986;SDS011;10652;50.306;8.570;2022-12-20T19:03:31;6.90;;;5.43;;
20986;SDS011;10652;50.306;8.570;2022-12-20T19:07:34;8.30;;;6.03;;
20986;SDS011;10652;50.306;8.570;2022-12-20T19:11:37;9.93;;;5.97;;
20986;SDS011;10652;50.306;8.570;2022-12-20T19:15:40;8.32;;;6.18;;
20986;SDS011;10652;50.306;8.570;2022-12-20T19:19:42;9.30;;;6.40;;
20986;SDS011;10652;50.306;8.570;2022-12-20T19:23:45;11.48;;;7.85;;
20986;SDS011;10652;50.306;8.570;2022-12-20T19:27:49;8.40;;;6.03;;
20986;SDS011;10652;50.306;8.570;2022-12-20T19:31:51;9.70;;;7.05;;
20986;SDS011;10652;50.306;8.570;2022-12-20T19:35:53;8.18;;;6.05;;
20986;SDS011;10652;50.306;8.570;2022-12-20T19:39:57;9.07;;;6.95;;
20986;SDS011;10652;50.306;8.570;2022-12-20T19:43:59;12.30;;;8.68;;
20986;SDS011;10652;50.306;8.570;2022-12-20T19:48:01;14.85;;;9.32;;
20986;SDS011;10652;50.306;8.570;2022-12-20T19:52:04;18.08;;;12.30;;
20986;SDS011;10652;50.306;8.570;2022-12-20T19:56:07;10.75;;;8.00;;
20986;SDS011;10652;50.306;8.570;2022-12-20T20:00:10;11.93;;;8.70;;
20986;SDS011;10652;50.306;8.570;2022-12-20T20:04:12;11.65;;;9.18;;
20986;SDS011;10652;50.306;8.570;2022-12-20T20:08:14;10.50;;;8.00;;
20986;SDS011;10652;50.306;8.570;2022-12-20T20:12:17;8.43;;;6.78;;
20986;SDS011;10652;50.306;8.570;2022-12-20T20:16:19;9.00;;;6.70;;
20986;SDS011;10652;50.306;8.570;2022-12-20T20:20:23;9.18;;;6.25;;
20986;SDS011;10652;50.306;8.570;2022-12-20T20:24:26;8.02;;;6.25;;
20986;SDS011;10652;50.306;8.570;2022-12-20T20:28:28;9.07;;;6.10;;
20986;SDS011;10652;50.306;8.570;2022-12-20T20:32:35;8.73;;;6.35;;
20986;SDS011;10652;50.306;8.570;2022-12-20T20:36:37;8.48;;;6.32;;
20986;SDS011;10652;50.306;8.570;2022-12-20T20:40:40;10.65;;;6.75;;
20986;SDS011;10652;50.306;8.570;2022-12-20T20:44:42;11.02;;;7.10;;
20986;SDS011;10652;50.306;8.570;2022-12-20T20:48:44;8.48;;;6.25;;
20986;SDS011;10652;50.306;8.570;2022-12-20T20:52:46;8.48;;;6.03;;
20986;SDS011;10652;50.306;8.570;2022-12-20T20:56:49;9.13;;;6.35;;
20986;SDS011;10652;50.306;8.570;2022-12-20T21:00:52;9.43;;;6.70;;
20986;SDS011;10652;50.306;8.570;2022-12-20T21:04:58;9.73;;;6.67;;
20986;SDS011;10652;50.306;8.570;2022-12-20T21:09:20;9.98;;;6.95;;
20986;SDS011;10652;50.306;8.570;2022-12-20T21:13:22;9.38;;;6.25;;
20986;SDS011;10652;50.306;8.570;2022-12-20T21:17:25;11.45;;;7.05;;
20986;SDS011;10652;50.306;8.570;2022-12-20T21:21:27;9.85;;;7.50;;
20986;SDS011;10652;50.306;8.570;2022-12-20T21:25:29;8.63;;;6.55;;
20986;SDS011;10652;50.306;8.570;2022-12-20T21:29:31;9.32;;;6.85;;
20986;SDS011;10652;50.306;8.570;2022-12-20T21:33:33;10.35;;;6.53;;
20986;SDS011;10652;50.306;8.570;2022-12-20T21:37:36;9.75;;;6.70;;
20986;SDS011;10652;50.306;8.570;2022-12-20T21:41:38;10.90;;;7.55;;
20986;SDS011;10652;50.306;8.570;2022-12-20T21:45:40;8.60;;;6.88;;
20986;SDS011;10652;50.306;8.570;2022-12-20T21:49:42;8.32;;;7.30;;
20986;SDS011;10652;50.306;8.570;2022-12-20T21:53:46;11.40;;;8.63;;
20986;SDS011;10652;50.306;8.570;2022-12-20T21:57:52;10.95;;;8.35;;
20986;SDS011;10652;50.306;8.570;2022-12-20T22:01:54;11.00;;;8.23;;
20986;SDS011;10652;50.306;8.570;2022-12-20T22:05:57;11.50;;;8.02;;
20986;SDS011;10652;50.306;8.570;2022-12-20T22:09:59;11.77;;;8.60;;
20986;SDS011;10652;50.306;8.570;2022-12-20T22:14:01;10.75;;;8.25;;
20986;SDS011;10652;50.306;8.570;2022-12-20T22:18:04;10.60;;;8.27;;
20986;SDS011;10652;50.306;8.570;2022-12-20T22:22:07;11.52;;;8.75;;
20986;SDS011;10652;50.306;8.570;2022-12-20T22:26:11;9.27;;;8.07;;
20986;SDS011;10652;50.306;8.570;2022-12-20T22:30:14;10.50;;;7.88;;
20986;SDS011;10652;50.306;8.570;2022-12-20T22:34:16;9.68;;;8.18;;
20986;SDS011;10652;50.306;8.570;2022-12-20T22:38:19;11.82;;;8.85;;
20986;SDS011;10652;50.306;8.570;2022-12-20T22:42:21;9.85;;;7.90;;
20986;SDS011;10652;50.306;8.570;2022-12-20T22:46:23;10.25;;;7.63;;
20986;SDS011;10652;50.306;8.570;2022-12-20T22:50:26;10.27;;;7.97;;
20986;SDS011;10652;50.306;8.570;2022-12-20T22:54:28;8.70;;;7.72;;
20986;SDS011;10652;50.306;8.570;2022-12-20T22:58:30;7.90;;;7.10;;
20986;SDS011;10652;50.306;8.570;2022-12-20T23:02:32;8.45;;;7.63;;
20986;SDS011;10652;50.306;8.570;2022-12-20T23:06:35;8.63;;;7.57;;
20986;SDS011;10652;50.306;8.570;2022-12-20T23:10:38;7.65;;;6.85;;
20986;SDS011;10652;50.306;8.570;2022-12-20T23:14:59;8.93;;;7.03;;
20986;SDS011;10652;50.306;8.570;2022-12-20T23:19:19;7.13;;;6.43;;
20986;SDS011;10652;50.306;8.570;2022-12-20T23:23:21;6.72;;;5.75;;
20986;SDS011;10652;50.306;8.570;2022-12-20T23:27:23;6.45;;;5.85;;
20986;SDS011;10652;50.306;8.570;2022-12-20T23:31:25;5.28;;;4.78;;
20986;SDS011;10652;50.306;8.570;2022-12-20T23:35:28;5.35;;;4.63;;
20986;SDS011;10652;50.306;8.570;2022-12-20T23:39:30;5.45;;;4.88;;
20986;SDS011;10652;50.306;8.570;2022-12-20T23:43:32;5.65;;;5.03;;
20986;SDS011;10652;50.306;8.570;2022-12-20T23:47:34;6.00;;;5.40;;
20986;SDS011;10652;50.306;8.570;2022-12-20T23:51:37;5.10;;;4.60;;
20986;SDS011;10652;50.306;8.570;2022-12-20T23:55:39;6.57;;;5.60;;
20986;SDS011;10652;50.306;8.570;2022-12-20T23:59:41;7.70;;;6.43;;
